createdAt,value
2023-03-12T00:00:15.832Z,10.462238
2023-03-12T00:05:16.673Z,10.755245
2023-03-12T00:10:15.772Z,10.840559
2023-03-12T00:15:16.397Z,10.564828
2023-03-12T00:20:15.645Z,10.490909
2023-03-12T00:25:16.137Z,10.183099
2023-03-12T00:30:16.030Z,10.239583
2023-03-12T00:35:16.373Z,10.186897
2023-03-12T00:40:15.609Z,10.277778
2023-03-12T00:45:16.315Z,10.369444
2023-03-12T00:50:15.751Z,10.264583
2023-03-12T00:55:15.698Z,10.386111
2023-03-12T01:00:16.359Z,10.267832
2023-03-12T01:05:16.416Z,10.188112
2023-03-12T01:10:15.771Z,10.122069
2023-03-12T01:15:16.050Z,10.297203
2023-03-12T01:20:15.773Z,10.463636
2023-03-12T01:25:16.132Z,10.375352
2023-03-12T01:30:16.954Z,10.097222
2023-03-12T01:35:16.986Z,10.206993
2023-03-12T01:40:16.710Z,10.208333
2023-03-12T01:45:15.996Z,10.360140
2023-03-12T01:50:17.268Z,9.999296
2023-03-12T01:55:16.515Z,9.870922
2023-03-12T02:00:16.534Z,9.564085
2023-03-12T02:05:16.622Z,9.272857
2023-03-12T02:10:16.019Z,9.225175
2023-03-12T02:15:16.143Z,9.163830
2023-03-12T02:20:16.767Z,9.230556
2023-03-12T02:25:16.283Z,9.153472
2023-03-12T02:30:16.366Z,9.188811
2023-03-12T02:35:16.636Z,9.065734
2023-03-12T02:40:17.009Z,8.782394
2023-03-12T02:45:15.700Z,8.944056
2023-03-12T02:50:16.245Z,8.745455
2023-03-12T02:55:16.825Z,8.547917
2023-03-12T03:00:16.248Z,8.391608
2023-03-12T03:05:16.496Z,9.015972
2023-03-12T03:10:16.152Z,8.795139
2023-03-12T03:15:21.690Z,8.881944
2023-03-12T03:20:15.653Z,9.306207
2023-03-12T03:25:16.577Z,9.301389
2023-03-12T03:30:16.071Z,9.098611
2023-03-12T03:35:16.247Z,8.688028
2023-03-12T03:40:16.527Z,8.640141
2023-03-12T03:45:16.680Z,8.342254
2023-03-12T03:50:16.526Z,8.176224
2023-03-12T03:55:17.573Z,8.383099
2023-03-12T04:00:15.950Z,8.309929
2023-03-12T04:05:15.792Z,8.291489
2023-03-12T04:10:16.091Z,8.300000
2023-03-12T04:15:16.229Z,8.365972
2023-03-12T04:20:17.140Z,8.375694
2023-03-12T04:25:15.926Z,8.263448
2023-03-12T04:30:16.412Z,8.251748
2023-03-12T04:35:16.560Z,8.359028
2023-03-12T04:40:16.661Z,8.398601
2023-03-12T04:45:16.191Z,8.268085
2023-03-12T04:50:16.077Z,8.266667
2023-03-12T04:55:17.391Z,8.145455
2023-03-12T05:00:15.614Z,8.151049
2023-03-12T05:05:16.187Z,8.025517
2023-03-12T05:10:16.294Z,7.934722
2023-03-12T05:15:16.836Z,7.830556
2023-03-12T05:20:16.989Z,7.672727
2023-03-12T05:25:18.018Z,7.453846
2023-03-12T05:30:16.942Z,7.156250
2023-03-12T05:35:18.734Z,6.983217
2023-03-12T05:40:18.175Z,6.738194
2023-03-12T05:45:17.423Z,6.886111
2023-03-12T05:50:16.986Z,6.900000
2023-03-12T05:55:17.062Z,6.760417
2023-03-12T06:00:16.881Z,6.583916
2023-03-12T06:05:17.476Z,5.956552
2023-03-12T06:10:16.653Z,6.064138
2023-03-12T06:15:15.968Z,6.300000
2023-03-12T06:20:15.942Z,6.330137
2023-03-12T06:25:15.855Z,6.287075
2023-03-12T06:30:16.839Z,6.074658
2023-03-12T06:35:15.643Z,5.924324
2023-03-12T06:40:16.224Z,5.652703
2023-03-12T06:45:16.636Z,5.608163
2023-03-12T06:50:15.571Z,5.793243
2023-03-12T06:55:15.751Z,5.854730
2023-03-12T07:00:15.938Z,5.910811
2023-03-12T07:05:16.503Z,5.789333
2023-03-12T07:10:16.050Z,5.655034
2023-03-12T07:15:16.187Z,5.472000
2023-03-12T07:20:16.139Z,5.444295
2023-03-12T07:25:17.907Z,5.500000
2023-03-12T07:30:16.678Z,5.446259
2023-03-12T07:35:16.211Z,5.534932
2023-03-12T07:40:15.612Z,5.398630
2023-03-12T07:45:15.795Z,5.265068
2023-03-12T07:50:16.513Z,5.245946
2023-03-12T07:55:15.729Z,5.341892
2023-03-12T08:00:16.236Z,5.399315
2023-03-12T08:05:15.854Z,5.300000
2023-03-12T08:10:16.219Z,5.521379
2023-03-12T08:15:16.657Z,5.446897
2023-03-12T08:20:16.454Z,5.235172
2023-03-12T08:25:16.004Z,5.080272
2023-03-12T08:30:15.766Z,5.095862
2023-03-12T08:35:17.618Z,5.152414
2023-03-12T08:40:15.778Z,5.120690
2023-03-12T08:45:15.886Z,5.099315
2023-03-12T08:50:16.369Z,5.028767
2023-03-12T08:55:15.964Z,4.529932
2023-03-12T09:00:16.218Z,4.222759
2023-03-12T09:05:15.911Z,4.063194
2023-03-12T09:10:15.697Z,4.508163
2023-03-12T09:15:16.489Z,4.588514
2023-03-12T09:20:21.520Z,4.477703
2023-03-12T09:25:15.766Z,4.384247
2023-03-12T09:30:17.269Z,4.451020
2023-03-12T09:35:16.562Z,4.498621
2023-03-12T09:40:16.173Z,4.295833
2023-03-12T09:45:16.080Z,4.466438
2023-03-12T09:50:16.454Z,4.540972
2023-03-12T09:55:15.845Z,4.351724
2023-03-12T10:00:16.522Z,4.581250
2023-03-12T10:05:17.346Z,4.670629
2023-03-12T10:10:15.668Z,4.513986
2023-03-12T10:15:16.288Z,4.453521
2023-03-12T10:20:16.364Z,4.405634
2023-03-12T10:25:17.149Z,4.390972
2023-03-12T10:30:16.254Z,4.388194
2023-03-12T10:35:15.722Z,4.335417
2023-03-12T10:40:16.275Z,4.265035
2023-03-12T10:45:16.880Z,4.211806
2023-03-12T10:50:15.932Z,4.138462
2023-03-12T10:55:16.922Z,4.199306
2023-03-12T11:00:17.273Z,3.941259
2023-03-12T11:05:16.131Z,3.908966
2023-03-12T11:10:16.031Z,3.609028
2023-03-12T11:15:16.533Z,3.720139
2023-03-12T11:20:15.779Z,3.767133
2023-03-12T11:25:15.858Z,3.534507
2023-03-12T11:30:17.142Z,3.329787
2023-03-12T11:35:17.278Z,2.966906
2023-03-12T11:40:17.084Z,2.735461
2023-03-12T11:45:17.480Z,2.707801
2023-03-12T11:50:16.610Z,2.654930
2023-03-12T11:55:16.891Z,2.709091
2023-03-12T12:00:16.522Z,2.945638
2023-03-12T12:05:15.909Z,3.131293
2023-03-12T12:10:16.039Z,3.242177
2023-03-12T12:15:16.455Z,3.200000
2023-03-12T12:20:16.275Z,3.019728
2023-03-12T12:25:16.240Z,3.157241
2023-03-12T12:30:16.253Z,2.726207
2023-03-12T12:35:16.292Z,2.469863
2023-03-12T12:40:17.852Z,2.342177
2023-03-12T12:45:16.167Z,2.615068
2023-03-12T12:50:16.976Z,2.451034
2023-03-12T12:55:16.133Z,2.244828
2023-03-12T13:00:17.547Z,2.165306
2023-03-12T13:05:16.785Z,1.985616
2023-03-12T13:10:23.451Z,1.956164
2023-03-12T13:15:16.870Z,2.063448
2023-03-12T13:20:16.403Z,1.910274
2023-03-12T13:25:16.207Z,1.800000
2023-03-12T13:30:16.269Z,2.056757
2023-03-12T13:35:16.261Z,2.006081
2023-03-12T13:40:16.391Z,1.955782
2023-03-12T13:45:16.122Z,1.937415
2023-03-12T13:50:15.892Z,1.916216
2023-03-12T13:55:16.188Z,1.983448
2023-03-12T14:00:15.804Z,1.850350
2023-03-12T14:05:15.815Z,2.064583
2023-03-12T14:10:16.447Z,1.775694
2023-03-12T14:15:16.333Z,1.647887
2023-03-12T14:20:15.798Z,1.841379
2023-03-12T14:25:17.005Z,2.125000
2023-03-12T14:30:16.467Z,2.097143
2023-03-12T14:35:16.223Z,1.979720
2023-03-12T14:40:15.826Z,1.670139
2023-03-12T14:45:16.698Z,1.788966
2023-03-12T14:50:17.232Z,2.576027
2023-03-12T14:55:16.405Z,2.004762
2023-03-12T15:00:15.595Z,2.327703
2023-03-12T15:05:16.671Z,2.410345
2023-03-12T15:10:16.222Z,3.704082
2023-03-12T15:15:16.761Z,3.873103
2023-03-12T15:20:15.488Z,4.015172
2023-03-12T15:25:16.465Z,3.727586
2023-03-12T15:30:18.873Z,3.587671
2023-03-12T15:35:17.169Z,4.107534
2023-03-12T15:40:16.206Z,4.632414
2023-03-12T15:45:16.694Z,4.364828
2023-03-12T15:50:15.731Z,4.544521
2023-03-12T15:55:16.164Z,4.501370
2023-03-12T16:00:15.491Z,4.673288
2023-03-12T16:05:15.958Z,4.769178
2023-03-12T16:10:15.600Z,5.318056
2023-03-12T16:15:16.684Z,5.552414
2023-03-12T16:20:16.944Z,5.649655
2023-03-12T16:25:15.777Z,5.983562
2023-03-12T16:30:16.362Z,6.323448
2023-03-12T16:35:16.493Z,6.522069
2023-03-12T16:40:30.833Z,6.329452
2023-03-12T16:45:16.900Z,6.572603
2023-03-12T16:50:16.060Z,6.661379
2023-03-12T16:55:16.521Z,6.800685
2023-03-12T17:00:16.517Z,6.996528
2023-03-12T17:05:16.102Z,7.097945
2023-03-12T17:10:15.876Z,7.167832
2023-03-12T17:15:16.158Z,6.811972
2023-03-12T17:20:17.013Z,7.462238
2023-03-12T17:25:16.223Z,7.634752
2023-03-12T17:30:16.297Z,7.577241
2023-03-12T17:35:17.084Z,7.262069
2023-03-12T17:40:15.702Z,7.491724
2023-03-12T17:45:16.430Z,7.353425
2023-03-12T17:50:17.427Z,6.692466
2023-03-12T17:55:16.440Z,6.479861
2023-03-12T18:00:17.377Z,7.067808
2023-03-12T18:05:17.016Z,7.332639
2023-03-12T18:10:15.754Z,7.794483
2023-03-12T18:15:21.465Z,8.568493
2023-03-12T18:20:25.878Z,8.739310
2023-03-12T18:25:16.716Z,8.022917
2023-03-12T18:30:16.468Z,8.676712
2023-03-12T18:35:15.782Z,8.983217
2023-03-12T18:40:15.594Z,9.574658
2023-03-12T18:45:16.673Z,9.857823
2023-03-12T18:50:16.029Z,9.648299
2023-03-12T18:55:15.660Z,10.019444
2023-03-12T19:00:16.276Z,10.956164
2023-03-12T19:05:16.030Z,11.458219
2023-03-12T19:10:17.394Z,11.893197
2023-03-12T19:15:15.537Z,11.273469
2023-03-12T19:20:15.805Z,9.671918
2023-03-12T19:25:16.977Z,9.232867
2023-03-12T19:30:15.794Z,9.016552
2023-03-12T19:35:16.703Z,9.360000
2023-03-12T19:40:17.295Z,10.251034
2023-03-12T19:45:15.521Z,11.001361
2023-03-12T19:50:16.314Z,11.339583
2023-03-12T19:55:16.070Z,11.134932
2023-03-12T20:00:16.169Z,11.154054
2023-03-12T20:05:17.310Z,11.025000
2023-03-12T20:10:18.321Z,9.763889
2023-03-12T20:15:16.042Z,8.899291
2023-03-12T20:20:16.307Z,8.565957
2023-03-12T20:25:15.769Z,8.995035
2023-03-12T20:30:15.700Z,8.761702
2023-03-12T20:35:17.646Z,8.578014
2023-03-12T20:40:17.094Z,8.663380
2023-03-12T20:45:15.768Z,8.853521
2023-03-12T20:50:17.491Z,9.302098
2023-03-12T20:55:16.139Z,9.586713
2023-03-12T21:00:16.285Z,9.368310
2023-03-12T21:05:16.890Z,9.986713
2023-03-12T21:10:15.863Z,10.257931
2023-03-12T21:15:16.401Z,10.431973
2023-03-12T21:20:16.630Z,10.469595
2023-03-12T21:25:17.066Z,10.527891
2023-03-12T21:30:16.230Z,10.700000
2023-03-12T21:35:17.271Z,10.697945
2023-03-12T21:40:15.658Z,10.497241
2023-03-12T21:45:15.724Z,10.337241
2023-03-12T21:50:15.789Z,9.712587
2023-03-12T21:55:15.973Z,9.625000
2023-03-12T22:00:15.613Z,9.524828
2023-03-12T22:05:16.732Z,9.364828
2023-03-12T22:10:17.334Z,9.431507
2023-03-12T22:15:16.409Z,9.653425
2023-03-12T22:20:16.196Z,9.447260
2023-03-12T22:25:15.750Z,9.034932
2023-03-12T22:30:16.359Z,8.807586
2023-03-12T22:35:16.155Z,9.227891
2023-03-12T22:40:15.519Z,9.378472
2023-03-12T22:45:16.452Z,9.285417
2023-03-12T22:50:16.013Z,9.246575
2023-03-12T22:55:16.330Z,8.683562
2023-03-12T23:00:16.746Z,8.289041
2023-03-12T23:05:15.587Z,8.212414
2023-03-12T23:10:16.720Z,7.897945
2023-03-12T23:15:15.876Z,8.440136
2023-03-12T23:20:16.702Z,9.025000
2023-03-12T23:25:17.048Z,9.015862
2023-03-12T23:30:16.535Z,8.934247
2023-03-12T23:35:16.328Z,8.953521
2023-03-12T23:40:16.093Z,8.849296
2023-03-12T23:45:15.845Z,8.842069
2023-03-12T23:50:15.721Z,8.593706
2023-03-12T23:55:16.528Z,8.318881
